createdAt,value
2018-07-05T00:00:30.556Z,10.10
2018-07-05T00:03:09.996Z,10.82
2018-07-05T00:05:49.630Z,12.17
2018-07-05T00:08:29.271Z,13.50
2018-07-05T00:11:08.893Z,15.53
2018-07-05T00:13:48.503Z,12.50
2018-07-05T00:16:28.122Z,10.30
2018-07-05T00:19:07.687Z,17.25
2018-07-05T00:21:47.295Z,11.57
2018-07-05T00:24:26.827Z,12.53
2018-07-05T00:27:06.379Z,15.83
2018-07-05T00:29:46.025Z,13.48
2018-07-05T00:32:25.541Z,10.80
2018-07-05T00:35:05.158Z,12.63
2018-07-05T00:37:44.659Z,13.77
2018-07-05T00:40:24.351Z,12.73
2018-07-05T00:43:03.874Z,15.90
2018-07-05T00:45:43.481Z,13.00
2018-07-05T00:48:23.084Z,14.33
2018-07-05T00:51:02.833Z,18.37
2018-07-05T00:53:42.309Z,13.80
2018-07-05T00:56:21.859Z,15.07
2018-07-05T00:59:01.451Z,16.53
2018-07-05T01:01:41.117Z,13.88
2018-07-05T01:04:20.759Z,13.70
2018-07-05T01:07:00.419Z,12.40
2018-07-05T01:09:40.072Z,13.17
2018-07-05T01:12:19.675Z,16.57
2018-07-05T01:14:59.281Z,17.97
2018-07-05T01:17:38.683Z,18.20
2018-07-05T01:20:18.414Z,14.98
2018-07-05T01:22:57.919Z,15.18
2018-07-05T01:25:37.488Z,17.27
2018-07-05T01:28:17.281Z,13.77
2018-07-05T01:30:57.091Z,15.97
2018-07-05T01:33:36.663Z,13.43
2018-07-05T01:36:16.262Z,13.90
2018-07-05T01:38:55.942Z,15.70
2018-07-05T01:41:35.402Z,14.10
2018-07-05T01:44:14.964Z,23.33
2018-07-05T01:46:54.575Z,17.70
2018-07-05T01:49:34.224Z,20.53
2018-07-05T01:52:14.213Z,16.90
2018-07-05T01:54:54.322Z,18.23
2018-07-05T01:57:34.577Z,16.40
2018-07-05T02:00:14.340Z,16.40
2018-07-05T02:02:54.676Z,16.40
2018-07-05T02:05:34.955Z,20.40
2018-07-05T02:08:14.499Z,20.27
2018-07-05T02:10:54.149Z,17.97
2018-07-05T02:13:33.610Z,17.60
2018-07-05T02:16:13.288Z,19.30
2018-07-05T02:18:52.912Z,16.73
2018-07-05T02:21:32.537Z,18.55
2018-07-05T02:24:12.277Z,21.40
2018-07-05T02:26:52.097Z,17.63
2018-07-05T02:29:31.678Z,15.93
2018-07-05T02:32:11.534Z,17.10
2018-07-05T02:34:51.053Z,17.07
2018-07-05T02:37:35.752Z,17.00
2018-07-05T02:40:15.342Z,20.37
2018-07-05T02:42:54.907Z,15.27
2018-07-05T02:45:34.460Z,17.07
2018-07-05T02:48:14.013Z,19.47
2018-07-05T02:50:53.406Z,14.70
2018-07-05T02:53:33.085Z,17.27
2018-07-05T02:56:12.632Z,29.03
2018-07-05T02:58:52.369Z,15.70
2018-07-05T03:01:31.823Z,12.82
2018-07-05T03:04:11.519Z,11.80
2018-07-05T03:06:51.177Z,12.37
2018-07-05T03:09:30.856Z,10.88
2018-07-05T03:12:10.327Z,17.13
2018-07-05T03:14:49.984Z,17.70
2018-07-05T03:17:29.447Z,13.00
2018-07-05T03:20:09.461Z,11.20
2018-07-05T03:22:48.919Z,16.53
2018-07-05T03:25:28.641Z,14.10
2018-07-05T03:28:08.161Z,14.18
2018-07-05T03:30:47.645Z,16.35
2018-07-05T03:33:27.057Z,14.63
2018-07-05T03:36:06.603Z,17.60
2018-07-05T03:38:46.233Z,12.10
2018-07-05T03:41:26.164Z,14.97
2018-07-05T03:44:05.634Z,15.67
2018-07-05T03:46:45.196Z,14.03
2018-07-05T03:49:24.942Z,14.03
2018-07-05T03:52:04.469Z,16.23
2018-07-05T03:54:43.931Z,14.97
2018-07-05T03:57:23.476Z,15.30
2018-07-05T04:00:03.016Z,17.97
2018-07-05T04:02:42.696Z,16.57
2018-07-05T04:05:22.288Z,16.73
2018-07-05T04:08:01.696Z,19.83
2018-07-05T04:10:41.243Z,23.37
2018-07-05T04:13:20.747Z,15.57
2018-07-05T04:16:00.319Z,25.37
2018-07-05T04:22:22.249Z,19.37
2018-07-05T04:25:01.949Z,17.43
2018-07-05T04:27:41.545Z,15.33
2018-07-05T04:30:21.052Z,17.63
2018-07-05T04:33:00.719Z,17.33
2018-07-05T04:35:40.203Z,19.23
2018-07-05T04:38:19.816Z,17.10
2018-07-05T04:41:00.275Z,18.87
2018-07-05T04:43:39.979Z,24.73
2018-07-05T04:46:19.488Z,18.53
2018-07-05T04:48:59.160Z,39.95
2018-07-05T04:51:39.008Z,24.23
2018-07-05T04:54:18.733Z,19.37
2018-07-05T04:56:58.128Z,20.67
2018-07-05T04:59:37.630Z,20.72
2018-07-05T05:02:17.434Z,19.03
2018-07-05T05:04:56.916Z,19.90
2018-07-05T05:07:36.471Z,20.93
2018-07-05T05:10:16.095Z,14.77
2018-07-05T05:12:55.591Z,18.30
2018-07-05T05:15:35.498Z,18.00
2018-07-05T05:18:15.124Z,17.23
2018-07-05T05:20:54.751Z,20.53
2018-07-05T05:23:34.275Z,18.90
2018-07-05T05:26:13.843Z,22.65
2018-07-05T05:28:53.538Z,18.57
2018-07-05T05:31:33.023Z,21.70
2018-07-05T05:34:12.545Z,22.03
2018-07-05T05:36:52.170Z,24.92
2018-07-05T05:39:31.784Z,27.80
2018-07-05T05:42:11.340Z,27.50
2018-07-05T05:44:50.959Z,23.50
2018-07-05T05:47:30.607Z,27.37
2018-07-05T05:50:10.046Z,29.33
2018-07-05T05:52:49.550Z,33.93
2018-07-05T05:55:29.224Z,39.00
2018-07-05T05:58:08.678Z,90.67
2018-07-05T06:00:48.176Z,27.98
2018-07-05T06:03:27.824Z,21.97
2018-07-05T06:06:07.307Z,27.50
2018-07-05T06:08:46.960Z,23.85
2018-07-05T06:11:26.550Z,21.70
2018-07-05T06:14:06.206Z,25.20
2018-07-05T06:16:45.865Z,26.57
2018-07-05T06:19:25.271Z,31.20
2018-07-05T06:22:04.782Z,22.70
2018-07-05T06:24:44.479Z,22.10
2018-07-05T06:27:24.156Z,22.20
2018-07-05T06:30:03.686Z,30.10
2018-07-05T06:32:43.176Z,24.53
2018-07-05T06:35:22.671Z,24.07
2018-07-05T06:38:02.340Z,26.27
2018-07-05T06:40:42.017Z,24.00
2018-07-05T06:43:21.524Z,26.60
2018-07-05T06:46:01.123Z,25.60
2018-07-05T06:48:40.648Z,18.13
2018-07-05T06:51:20.267Z,19.98
2018-07-05T06:53:59.903Z,23.03
2018-07-05T06:56:39.437Z,23.07
2018-07-05T06:59:19.059Z,23.87
2018-07-05T07:01:58.739Z,17.45
2018-07-05T07:04:38.435Z,20.03
2018-07-05T07:07:18.119Z,17.87
2018-07-05T07:09:57.728Z,18.70
2018-07-05T07:12:37.227Z,17.82
2018-07-05T07:15:16.841Z,17.83
2018-07-05T07:17:56.477Z,16.50
2018-07-05T07:20:36.267Z,19.20
2018-07-05T07:23:15.696Z,20.17
2018-07-05T07:25:55.290Z,15.07
2018-07-05T07:28:34.968Z,15.03
2018-07-05T07:31:14.521Z,16.70
2018-07-05T07:33:54.124Z,13.17
2018-07-05T07:36:33.723Z,10.60
2018-07-05T07:39:13.228Z,10.03
2018-07-05T07:41:45.358Z,14.20
2018-07-05T07:44:12.595Z,10.40
2018-07-05T07:46:39.839Z,15.80
2018-07-05T07:49:07.488Z,11.97
2018-07-05T07:51:34.714Z,11.10
2018-07-05T07:54:01.956Z,11.15
2018-07-05T07:56:29.232Z,16.00
2018-07-05T07:58:56.454Z,9.68
2018-07-05T08:01:23.692Z,9.90
2018-07-05T08:03:50.938Z,10.65
2018-07-05T08:06:18.185Z,9.70
2018-07-05T08:08:45.539Z,9.70
2018-07-05T08:11:12.757Z,11.10
2018-07-05T08:13:39.971Z,10.10
2018-07-05T08:16:07.235Z,12.63
2018-07-05T08:18:34.468Z,10.50
2018-07-05T08:21:01.738Z,11.97
2018-07-05T08:23:28.971Z,12.23
2018-07-05T08:25:56.210Z,10.90
2018-07-05T08:28:23.459Z,10.75
2018-07-05T08:30:50.671Z,10.20
2018-07-05T08:33:17.929Z,9.97
2018-07-05T08:35:45.148Z,9.40
2018-07-05T08:38:12.397Z,9.30
2018-07-05T08:40:42.663Z,10.23
2018-07-05T08:43:09.876Z,7.87
2018-07-05T08:45:37.151Z,8.63
2018-07-05T08:48:04.380Z,10.40
2018-07-05T08:50:31.678Z,9.90
2018-07-05T08:52:58.940Z,7.80
2018-07-05T08:55:26.150Z,8.67
2018-07-05T08:57:53.406Z,8.23
2018-07-05T09:00:20.628Z,7.07
2018-07-05T09:02:47.907Z,9.70
2018-07-05T09:05:15.202Z,7.27
2018-07-05T09:07:42.832Z,9.00
2018-07-05T09:10:10.067Z,10.50
2018-07-05T09:12:37.271Z,9.03
2018-07-05T09:15:04.512Z,6.80
2018-07-05T09:17:31.791Z,5.67
2018-07-05T09:19:59.010Z,7.27
2018-07-05T09:22:26.273Z,5.30
2018-07-05T09:24:54.304Z,12.63
2018-07-05T09:27:21.600Z,6.07
2018-07-05T09:29:48.842Z,4.80
2018-07-05T09:32:16.080Z,5.42
2018-07-05T09:34:43.310Z,4.70
2018-07-05T09:37:10.598Z,6.22
2018-07-05T09:39:37.817Z,4.83
2018-07-05T09:42:05.046Z,4.03
2018-07-05T09:44:32.326Z,3.93
2018-07-05T09:46:59.608Z,4.40
2018-07-05T09:49:26.812Z,3.80
2018-07-05T09:51:54.046Z,5.10
2018-07-05T09:54:21.276Z,5.03
2018-07-05T09:56:48.558Z,4.20
2018-07-05T09:59:17.751Z,4.33
2018-07-05T10:01:44.991Z,7.47
2018-07-05T10:04:12.219Z,4.93
2018-07-05T10:06:39.461Z,4.00
2018-07-05T10:09:06.896Z,4.30
2018-07-05T10:11:34.795Z,4.10
2018-07-05T10:14:02.009Z,4.70
2018-07-05T10:16:29.347Z,5.47
2018-07-05T10:18:56.615Z,3.73
2018-07-05T10:21:23.843Z,3.80
2018-07-05T10:23:51.071Z,4.90
2018-07-05T10:26:18.715Z,6.40
2018-07-05T10:28:58.167Z,3.93
2018-07-05T10:31:37.711Z,3.90
2018-07-05T10:34:04.926Z,3.90
2018-07-05T10:36:32.153Z,5.07
2018-07-05T10:38:59.406Z,9.53
2018-07-05T10:41:39.079Z,3.90
2018-07-05T10:44:18.731Z,4.90
2018-07-05T10:46:58.213Z,3.80
2018-07-05T10:49:37.768Z,3.63
2018-07-05T10:52:17.291Z,3.57
2018-07-05T10:54:56.964Z,4.13
2018-07-05T10:57:36.517Z,6.00
2018-07-05T11:00:16.066Z,3.83
2018-07-05T11:02:55.540Z,3.43
2018-07-05T11:05:35.327Z,3.07
2018-07-05T11:08:15.023Z,2.97
2018-07-05T11:10:54.622Z,3.17
2018-07-05T11:13:34.100Z,4.73
2018-07-05T11:16:13.540Z,2.73
2018-07-05T11:18:52.987Z,2.92
2018-07-05T11:21:32.639Z,2.90
2018-07-05T11:24:12.072Z,3.07
2018-07-05T11:26:51.559Z,3.50
2018-07-05T11:29:31.087Z,2.50
2018-07-05T11:32:10.740Z,2.70
2018-07-05T11:34:50.367Z,5.33
2018-07-05T11:37:29.908Z,3.03
2018-07-05T11:40:09.536Z,3.67
2018-07-05T11:42:48.928Z,4.03
2018-07-05T11:45:28.544Z,2.40
2018-07-05T11:48:08.211Z,2.23
2018-07-05T11:50:47.833Z,3.50
2018-07-05T11:53:27.244Z,2.40
2018-07-05T11:56:06.928Z,2.40
2018-07-05T11:58:46.515Z,2.83
2018-07-05T12:01:26.053Z,3.30
2018-07-05T12:04:05.704Z,11.53
2018-07-05T12:06:45.208Z,3.23
2018-07-05T12:09:25.809Z,2.85
2018-07-05T12:12:05.267Z,3.10
2018-07-05T12:14:44.875Z,2.92
2018-07-05T12:17:24.811Z,3.60
2018-07-05T12:20:04.330Z,3.03
2018-07-05T12:22:44.018Z,5.07
2018-07-05T12:25:23.738Z,4.17
2018-07-05T12:28:03.287Z,2.30
2018-07-05T12:30:42.796Z,5.30
2018-07-05T12:33:22.449Z,2.73
2018-07-05T12:36:01.993Z,1.80
2018-07-05T12:38:41.632Z,2.58
2018-07-05T12:41:21.288Z,2.83
2018-07-05T12:44:00.647Z,2.90
2018-07-05T12:46:40.176Z,2.57
2018-07-05T12:49:19.599Z,2.13
2018-07-05T12:51:59.211Z,2.20
2018-07-05T12:54:38.770Z,2.70
2018-07-05T12:57:18.412Z,2.40
2018-07-05T12:59:58.039Z,2.20
2018-07-05T13:02:37.591Z,2.17
2018-07-05T13:05:17.242Z,2.37
2018-07-05T13:07:56.743Z,2.27
2018-07-05T13:10:36.302Z,2.57
2018-07-05T13:13:15.863Z,2.13
2018-07-05T13:15:55.300Z,1.90
2018-07-05T13:18:34.968Z,1.70
2018-07-05T13:21:14.537Z,2.07
2018-07-05T13:23:54.183Z,2.90
2018-07-05T13:26:33.856Z,13.40
2018-07-05T13:29:13.511Z,3.27
2018-07-05T13:31:53.097Z,2.47
2018-07-05T13:34:32.566Z,2.10
2018-07-05T13:37:12.213Z,2.10
2018-07-05T13:39:51.865Z,3.60
2018-07-05T13:42:31.291Z,2.20
2018-07-05T13:45:10.707Z,1.80
2018-07-05T13:47:50.308Z,1.82
2018-07-05T13:50:29.770Z,2.60
2018-07-05T13:53:09.235Z,5.93
2018-07-05T13:55:48.703Z,2.93
2018-07-05T13:59:30.924Z,2.53
2018-07-05T14:02:10.444Z,1.93
2018-07-05T14:04:49.908Z,4.80
2018-07-05T14:07:29.504Z,1.50
2018-07-05T14:10:09.104Z,1.70
2018-07-05T14:12:48.773Z,1.57
2018-07-05T14:15:28.472Z,1.80
2018-07-05T14:18:07.951Z,1.80
2018-07-05T14:20:47.549Z,2.00
2018-07-05T14:23:27.084Z,1.80
2018-07-05T14:26:06.789Z,1.70
2018-07-05T14:28:46.427Z,1.77
2018-07-05T14:31:26.130Z,1.60
2018-07-05T14:34:05.740Z,3.60
2018-07-05T14:36:45.279Z,1.70
2018-07-05T14:39:24.915Z,1.77
2018-07-05T14:42:04.502Z,1.67
2018-07-05T14:44:44.086Z,1.43
2018-07-05T14:47:23.707Z,1.17
2018-07-05T14:50:03.112Z,2.20
2018-07-05T14:52:42.688Z,2.53
2018-07-05T14:55:22.167Z,1.50
2018-07-05T14:58:01.641Z,2.22
2018-07-05T15:00:41.223Z,2.33
2018-07-05T15:03:20.927Z,1.63
2018-07-05T15:06:00.527Z,1.90
2018-07-05T15:08:40.097Z,2.80
2018-07-05T15:11:19.631Z,2.90
2018-07-05T15:13:59.261Z,4.70
2018-07-05T15:16:38.887Z,2.40
2018-07-05T15:19:18.450Z,5.43
2018-07-05T15:21:58.111Z,3.00
2018-07-05T15:24:37.662Z,2.17
2018-07-05T15:27:17.250Z,6.63
2018-07-05T15:29:56.878Z,2.00
2018-07-05T15:32:36.535Z,2.40
2018-07-05T15:35:16.190Z,2.80
2018-07-05T15:37:55.773Z,2.73
2018-07-05T15:40:35.538Z,3.03
2018-07-05T15:43:15.058Z,3.17
2018-07-05T15:49:36.700Z,2.17
2018-07-05T15:52:16.239Z,2.10
2018-07-05T15:54:56.244Z,1.57
2018-07-05T15:57:35.840Z,2.13
2018-07-05T16:00:18.380Z,2.53
2018-07-05T16:02:58.078Z,2.07
2018-07-05T16:05:37.732Z,2.20
2018-07-05T16:08:17.258Z,2.33
2018-07-05T16:10:56.852Z,2.07
2018-07-05T16:13:36.336Z,3.63
2018-07-05T16:16:16.045Z,2.20
2018-07-05T16:18:56.801Z,2.60
2018-07-05T16:21:36.434Z,2.57
2018-07-05T16:24:16.046Z,2.27
2018-07-05T16:26:55.787Z,2.93
2018-07-05T16:29:35.364Z,3.40
2018-07-05T16:32:14.889Z,2.50
2018-07-05T16:34:54.632Z,2.70
2018-07-05T16:37:34.336Z,2.90
2018-07-05T16:40:13.789Z,3.10
2018-07-05T16:42:53.475Z,3.00
2018-07-05T16:45:33.131Z,2.97
2018-07-05T16:48:13.080Z,4.23
2018-07-05T16:50:52.765Z,8.63
2018-07-05T16:53:32.292Z,3.50
2018-07-05T16:56:12.000Z,6.17
2018-07-05T16:58:51.606Z,3.50
2018-07-05T17:01:31.079Z,4.53
2018-07-05T17:04:10.622Z,4.10
2018-07-05T17:06:50.201Z,8.30
2018-07-05T17:09:29.509Z,3.35
2018-07-05T17:12:09.209Z,3.20
2018-07-05T17:14:48.836Z,8.17
2018-07-05T17:17:28.314Z,3.70
2018-07-05T17:20:07.972Z,6.83
2018-07-05T17:22:47.367Z,3.40
2018-07-05T17:25:26.902Z,3.67
2018-07-05T17:28:06.512Z,3.90
2018-07-05T17:30:46.211Z,4.00
2018-07-05T17:33:25.867Z,4.30
2018-07-05T17:36:05.844Z,4.78
2018-07-05T17:38:45.292Z,3.30
2018-07-05T17:41:24.847Z,3.80
2018-07-05T17:44:04.368Z,4.43
2018-07-05T17:46:43.982Z,4.50
2018-07-05T17:49:23.562Z,4.27
2018-07-05T17:52:03.658Z,3.70
2018-07-05T17:54:43.150Z,3.53
2018-07-05T17:57:22.584Z,3.67
2018-07-05T18:00:03.555Z,3.67
2018-07-05T18:02:43.444Z,7.33
2018-07-05T18:05:23.211Z,4.22
2018-07-05T18:08:02.888Z,5.47
2018-07-05T18:10:42.251Z,4.77
2018-07-05T18:13:21.998Z,8.03
2018-07-05T18:16:01.571Z,8.40
2018-07-05T18:18:41.098Z,6.80
2018-07-05T18:21:20.504Z,10.80
2018-07-05T18:24:00.158Z,6.03
2018-07-05T18:26:39.786Z,6.77
2018-07-05T18:29:19.503Z,5.63
2018-07-05T18:31:59.011Z,5.37
2018-07-05T18:34:38.830Z,25.77
2018-07-05T18:37:18.460Z,6.13
2018-07-05T18:39:58.332Z,8.70
2018-07-05T18:42:37.882Z,8.50
2018-07-05T18:45:17.643Z,6.23
2018-07-05T18:47:57.231Z,5.33
2018-07-05T18:50:36.776Z,4.60
2018-07-05T18:53:16.331Z,4.80
2018-07-05T18:55:56.367Z,7.27
2018-07-05T18:58:35.964Z,9.13
2018-07-05T19:01:16.102Z,8.10
2018-07-05T19:03:56.039Z,6.80
2018-07-05T19:06:35.647Z,8.23
2018-07-05T19:09:15.292Z,10.13
2018-07-05T19:11:54.848Z,5.00
2018-07-05T19:14:34.505Z,8.00
2018-07-05T19:17:14.016Z,5.43
2018-07-05T19:19:54.293Z,9.60
2018-07-05T19:22:33.973Z,6.17
2018-07-05T19:25:13.890Z,5.00
2018-07-05T19:27:53.380Z,8.88
2018-07-05T19:30:32.866Z,4.75
2018-07-05T19:33:12.448Z,4.63
2018-07-05T19:35:52.236Z,7.97
2018-07-05T19:38:32.088Z,6.72
2018-07-05T19:41:11.587Z,10.20
2018-07-05T19:43:51.269Z,4.97
2018-07-05T19:46:31.680Z,6.17
2018-07-05T19:49:11.322Z,5.60
2018-07-05T19:51:50.741Z,6.73
2018-07-05T19:54:30.129Z,8.15
2018-07-05T19:57:09.744Z,8.77
2018-07-05T19:59:49.211Z,8.97
2018-07-05T20:02:28.890Z,7.30
2018-07-05T20:05:08.436Z,8.48
2018-07-05T20:07:48.167Z,8.23
2018-07-05T20:10:27.784Z,8.53
2018-07-05T20:13:07.525Z,6.77
2018-07-05T20:15:47.264Z,11.23
2018-07-05T20:18:26.608Z,7.10
2018-07-05T20:21:06.489Z,6.87
2018-07-05T20:23:45.863Z,6.83
2018-07-05T20:26:25.458Z,6.53
2018-07-05T20:29:05.012Z,10.40
2018-07-05T20:31:44.857Z,8.95
2018-07-05T20:34:24.427Z,6.37
2018-07-05T20:37:04.094Z,8.50
2018-07-05T20:39:43.553Z,5.67
2018-07-05T20:42:23.177Z,6.97
2018-07-05T20:45:02.764Z,6.90
2018-07-05T20:47:42.254Z,7.45
2018-07-05T20:50:21.824Z,6.17
2018-07-05T20:53:01.480Z,7.13
2018-07-05T20:55:41.387Z,8.83
2018-07-05T20:58:20.887Z,5.90
2018-07-05T21:01:00.319Z,5.67
2018-07-05T21:03:39.896Z,7.00
2018-07-05T21:06:19.309Z,5.22
2018-07-05T21:08:59.023Z,5.90
2018-07-05T21:11:38.555Z,6.77
2018-07-05T21:14:18.040Z,8.13
2018-07-05T21:16:57.596Z,5.97
2018-07-05T21:19:37.216Z,5.40
2018-07-05T21:22:16.739Z,5.40
2018-07-05T21:24:56.509Z,6.87
2018-07-05T21:27:36.052Z,5.47
2018-07-05T21:30:15.871Z,6.90
2018-07-05T21:32:55.342Z,10.70
2018-07-05T21:35:35.205Z,6.03
2018-07-05T21:38:14.737Z,13.63
2018-07-05T21:40:54.192Z,8.17
2018-07-05T21:43:33.763Z,9.35
2018-07-05T21:46:13.485Z,8.93
2018-07-05T21:48:53.092Z,8.83
2018-07-05T21:51:33.014Z,6.83
2018-07-05T21:54:12.528Z,12.93
2018-07-05T21:56:52.217Z,7.50
2018-07-05T21:59:31.786Z,5.63
2018-07-05T22:02:11.496Z,5.83
2018-07-05T22:04:50.975Z,8.23
2018-07-05T22:07:30.620Z,6.20
2018-07-05T22:10:10.315Z,5.63
2018-07-05T22:12:49.989Z,5.63
2018-07-05T22:15:29.479Z,5.67
2018-07-05T22:18:14.380Z,8.15
2018-07-05T22:20:59.295Z,7.80
2018-07-05T22:23:44.111Z,6.03
2018-07-05T22:26:28.897Z,5.30
2018-07-05T22:29:13.752Z,6.57
2018-07-05T22:31:56.375Z,6.17
2018-07-05T22:34:36.104Z,6.62
2018-07-05T22:37:15.831Z,8.43
2018-07-05T22:39:55.800Z,6.90
2018-07-05T22:42:35.837Z,7.00
2018-07-05T22:45:15.743Z,6.87
2018-07-05T22:47:55.243Z,9.85
2018-07-05T22:50:34.939Z,7.40
2018-07-05T22:53:14.555Z,8.38
2018-07-05T22:55:54.623Z,8.70
2018-07-05T22:58:34.700Z,7.80
2018-07-05T23:01:14.501Z,10.17
2018-07-05T23:03:55.439Z,10.40
2018-07-05T23:06:35.061Z,9.93
2018-07-05T23:09:14.920Z,10.03
2018-07-05T23:11:54.755Z,16.27
2018-07-05T23:14:34.428Z,8.60
2018-07-05T23:17:14.071Z,10.13
2018-07-05T23:19:53.550Z,9.53
2018-07-05T23:22:33.093Z,7.62
2018-07-05T23:25:12.729Z,8.30
2018-07-05T23:27:52.302Z,11.43
2018-07-05T23:30:31.856Z,8.78
2018-07-05T23:33:11.496Z,8.90
2018-07-05T23:35:51.019Z,10.75
2018-07-05T23:38:30.620Z,9.30
2018-07-05T23:41:10.134Z,9.90
2018-07-05T23:43:50.735Z,8.73
2018-07-05T23:46:30.251Z,9.10
2018-07-05T23:49:09.766Z,12.10
2018-07-05T23:51:49.355Z,9.90
2018-07-05T23:54:28.809Z,8.90
2018-07-05T23:57:08.277Z,9.57
2018-07-05T23:59:47.922Z,12.17
